Time;durP1;ratioP1;P1;durP2;ratioP2;P2;SDS_P1;SDS_P2;PMS_P1;PMS_P2;Temp;Humidity;BMP_temperature;BMP_pressure;BME280_temperature;BME280_humidity;BME280_pressure;Samples;Min_cycle;Max_cycle;Signal;HPM_P1;HPM_P2
2021/01/26 00:00:57;;;;;;;35.85;18.77;;;;;;;-2.73;89.24;99689.69;5010018;28;20079;-76
2021/01/26 00:03:23;;;;;;;33.13;18.40;;;;;;;-2.57;89.12;99688.25;5010398;28;20099;-75
2021/01/26 00:05:50;;;;;;;37.35;18.92;;;;;;;-2.60;89.02;99688.56;5027357;28;20049;-75
2021/01/26 00:08:17;;;;;;;38.85;19.30;;;;;;;-2.73;89.11;99700.38;5009900;28;20049;-75
2021/01/26 00:10:44;;;;;;;36.83;19.33;;;;;;;-2.67;89.32;99692.78;5004777;28;20238;-76
2021/01/26 00:13:10;;;;;;;34.67;19.38;;;;;;;-2.49;88.53;99702.56;5007079;28;20046;-76
2021/01/26 00:15:36;;;;;;;37.10;20.70;;;;;;;-2.61;88.60;99697.53;5026086;28;20676;-75
2021/01/26 00:18:04;;;;;;;35.60;18.02;;;;;;;-2.56;88.62;99706.78;4989143;28;20468;-75
2021/01/26 00:20:31;;;;;;;35.83;18.92;;;;;;;-2.78;89.07;99705.31;5011065;28;20126;-75
2021/01/26 00:22:58;;;;;;;37.10;18.40;;;;;;;-2.90;90.10;99703.78;5013295;28;20067;-76
2021/01/26 00:25:34;;;;;;;37.80;19.55;;;;;;;-2.79;89.78;99700.97;5013162;28;20096;-76
2021/01/26 00:28:01;;;;;;;36.03;18.90;;;;;;;-2.75;90.00;99706.81;5012682;28;20556;-76
2021/01/26 00:30:34;;;;;;;35.65;19.10;;;;;;;-2.84;89.84;99702.38;4996769;28;20053;-75
2021/01/26 00:33:12;;;;;;;35.45;18.83;;;;;;;-2.82;90.11;99703.91;5013058;28;20073;-75
2021/01/26 00:35:38;;;;;;;36.55;19.67;;;;;;;-2.73;89.18;99699.53;5011857;28;20510;-76
2021/01/26 00:38:05;;;;;;;35.75;18.00;;;;;;;-2.78;89.56;99707.97;4999153;28;20081;-75
2021/01/26 00:40:32;;;;;;;35.85;19.17;;;;;;;-2.86;89.81;99705.19;5013443;28;20082;-75
2021/01/26 00:42:59;;;;;;;34.60;19.30;;;;;;;-2.77;88.87;99709.63;5062692;28;20101;-75
2021/01/26 00:45:27;;;;;;;38.28;18.85;;;;;;;-2.71;89.14;99703.72;5009378;28;20046;-75
2021/01/26 00:47:55;;;;;;;37.80;19.87;;;;;;;-2.80;89.49;99701.09;4988841;28;20144;-75
2021/01/26 00:50:27;;;;;;;32.78;18.55;;;;;;;-2.63;88.79;99704.84;4998235;28;20037;-76
2021/01/26 00:52:54;;;;;;;37.88;18.95;;;;;;;-2.63;88.75;99710.16;5013236;28;20099;-75
2021/01/26 00:55:30;;;;;;;35.08;18.50;;;;;;;-2.67;88.57;99698.94;4982077;28;20088;-75
2021/01/26 00:57:57;;;;;;;40.47;19.25;;;;;;;-2.66;88.91;99707.78;4980845;28;20064;-75
2021/01/26 01:00:32;;;;;;;34.75;19.05;;;;;;;-2.61;88.40;99702.88;4996690;28;20048;-75
2021/01/26 01:03:05;;;;;;;38.35;21.30;;;;;;;-2.75;88.73;99713.00;5012820;28;20061;-75
2021/01/26 01:05:31;;;;;;;34.53;18.98;;;;;;;-2.77;89.36;99714.97;4996866;28;20483;-76
2021/01/26 01:07:59;;;;;;;39.20;20.00;;;;;;;-2.72;88.63;99712.72;5030025;28;20053;-75
2021/01/26 01:10:28;;;;;;;39.63;19.48;;;;;;;-2.84;88.91;99723.69;4995289;28;20058;-76
2021/01/26 01:12:55;;;;;;;35.15;18.88;;;;;;;-2.79;88.69;99724.97;5012298;28;20053;-76
2021/01/26 01:15:22;;;;;;;37.58;19.65;;;;;;;-2.71;88.44;99724.22;4980068;28;20055;-75
2021/01/26 01:17:48;;;;;;;34.17;18.23;;;;;;;-2.73;89.04;99721.69;5012511;28;20065;-75
2021/01/26 01:20:18;;;;;;;35.53;19.00;;;;;;;-2.63;88.53;99724.34;4996324;28;20053;-75
2021/01/26 01:22:45;;;;;;;37.72;18.95;;;;;;;-2.77;88.79;99725.63;4996563;28;20518;-75
2021/01/26 01:25:11;;;;;;;36.97;20.02;;;;;;;-2.75;88.94;99726.31;4980166;28;20068;-75
2021/01/26 01:27:38;;;;;;;35.55;19.65;;;;;;;-2.63;88.37;99720.84;5035750;28;20057;-75
2021/01/26 01:30:07;;;;;;;33.75;18.40;;;;;;;-2.70;87.76;99716.06;5036454;28;20053;-75
2021/01/26 01:32:35;;;;;;;35.70;19.15;;;;;;;-2.76;88.54;99721.97;4999521;28;20104;-75
2021/01/26 01:35:02;;;;;;;37.67;19.38;;;;;;;-2.79;88.37;99719.63;5029762;28;20102;-75
2021/01/26 01:37:28;;;;;;;32.63;18.75;;;;;;;-2.76;88.50;99721.13;5005941;28;20090;-75
2021/01/26 01:39:54;;;;;;;37.80;19.13;;;;;;;-2.70;88.12;99717.91;4995297;28;20046;-75
2021/01/26 01:42:21;;;;;;;34.00;18.63;;;;;;;-2.82;88.63;99719.91;4994434;28;20078;-75
2021/01/26 01:44:47;;;;;;;32.58;18.08;;;;;;;-2.87;89.08;99722.16;5011594;28;20563;-76
2021/01/26 01:47:38;;;;;;;34.42;18.08;;;;;;;-3.08;89.61;99716.97;5028910;28;20057;-76
2021/01/26 01:50:13;;;;;;;32.92;17.25;;;;;;;-3.07;89.99;99718.66;5011638;28;20054;-75
2021/01/26 01:52:40;;;;;;;33.50;16.63;;;;;;;-2.97;89.68;99717.81;5011616;28;20071;-75
2021/01/26 01:55:15;;;;;;;32.47;17.88;;;;;;;-3.04;90.33;99720.19;4994755;28;20045;-75
2021/01/26 01:57:55;;;;;;;31.98;17.25;;;;;;;-3.02;89.97;99718.22;4972242;28;20457;-75
2021/01/26 02:00:22;;;;;;;35.13;17.20;;;;;;;-3.06;89.89;99719.50;4981835;28;20050;-75
2021/01/26 02:02:53;;;;;;;30.92;17.15;;;;;;;-3.08;89.99;99708.13;5006078;28;20050;-75
2021/01/26 02:05:20;;;;;;;35.63;18.63;;;;;;;-3.11;90.53;99711.09;4992666;28;20056;-75
2021/01/26 02:07:48;;;;;;;31.33;17.10;;;;;;;-3.09;90.13;99709.97;5001534;28;20111;-75
2021/01/26 02:10:15;;;;;;;33.22;16.85;;;;;;;-3.09;90.20;99715.28;4987070;28;20052;-75
2021/01/26 02:12:41;;;;;;;33.38;17.20;;;;;;;-3.05;89.82;99710.53;5009401;28;20073;-75
2021/01/26 02:15:08;;;;;;;32.90;17.52;;;;;;;-3.05;89.85;99713.19;4995399;28;20045;-75
2021/01/26 02:17:54;;;;;;;30.70;16.88;;;;;;;-3.11;90.22;99716.41;5011904;28;20534;-76
2021/01/26 02:20:42;;;;;;;31.58;15.70;;;;;;;-3.08;89.98;99716.13;4991707;28;20422;-75
2021/01/26 02:23:24;;;;;;;30.13;15.73;;;;;;;-3.03;89.60;99713.88;5011293;28;20472;-75
2021/01/26 02:26:09;;;;;;;33.47;16.17;;;;;;;-3.01;89.59;99705.75;5010081;28;20045;-75
2021/01/26 02:29:00;;;;;;;30.42;15.00;;;;;;;-2.99;89.28;99706.44;5010551;28;20042;-76
2021/01/26 02:31:48;;;;;;;31.38;15.73;;;;;;;-2.91;88.50;99709.25;5028418;28;20128;-75
2021/01/26 02:34:52;;;;;;;26.92;13.82;;;;;;;-3.01;88.75;99708.41;5059133;28;20446;-76
2021/01/26 02:37:56;;;;;;;26.10;14.50;;;;;;;-2.97;88.41;99709.81;4975387;28;20794;-76
2021/01/26 02:40:34;;;;;;;24.70;13.90;;;;;;;-3.03;88.62;99713.88;4991977;28;20047;-76
2021/01/26 02:43:11;;;;;;;27.63;13.57;;;;;;;-2.97;87.82;99710.66;5002506;28;20085;-75
2021/01/26 02:45:45;;;;;;;25.05;13.70;;;;;;;-3.03;87.80;99713.88;5011164;28;20098;-76
2021/01/26 02:48:25;;;;;;;24.88;13.55;;;;;;;-3.07;87.74;99712.47;5012789;28;20053;-75
2021/01/26 02:51:08;;;;;;;25.52;14.75;;;;;;;-3.13;87.65;99713.06;5035037;28;20041;-75
2021/01/26 02:53:48;;;;;;;25.80;13.57;;;;;;;-3.25;88.35;99716.84;4975651;28;20081;-75
2021/01/26 02:56:34;;;;;;;25.45;12.98;;;;;;;-3.29;88.50;99710.13;4974788;28;20045;-75
2021/01/26 02:59:16;;;;;;;26.13;13.05;;;;;;;-3.24;88.27;99713.22;5007413;28;20054;-75
2021/01/26 03:01:47;;;;;;;26.40;13.60;;;;;;;-3.21;88.18;99704.94;5010946;28;20069;-76
2021/01/26 03:04:20;;;;;;;39.17;14.80;;;;;;;-3.26;88.00;99713.34;5010936;28;20056;-75
2021/01/26 03:06:49;;;;;;;22.75;13.15;;;;;;;-3.15;87.68;99715.03;4994520;28;20049;-76
2021/01/26 03:09:17;;;;;;;;;;;;;;;-3.11;87.54;99711.09;5011063;28;20072;-76
2021/01/26 03:12:09;;;;;;;22.33;12.70;;;;;;;-3.01;86.93;99719.91;5010989;28;19921;-76
2021/01/26 03:14:41;;;;;;;19.83;10.77;;;;;;;-2.90;86.47;99719.78;4994736;28;20041;-76
2021/01/26 03:17:11;;;;;;;18.65;11.60;;;;;;;-2.82;85.51;99725.25;5028157;28;20084;-76
2021/01/26 03:19:39;;;;;;;22.17;11.32;;;;;;;-2.77;85.12;99724.78;5009375;28;20139;-76
2021/01/26 03:22:08;;;;;;;21.17;12.70;;;;;;;-2.79;85.46;99727.63;5010703;28;20125;-76
2021/01/26 03:24:38;;;;;;;19.95;12.32;;;;;;;-2.75;85.42;99722.81;4992272;28;20050;-75
2021/01/26 03:27:08;;;;;;;20.40;11.55;;;;;;;-2.74;84.97;99719.16;4984592;28;20133;-76
2021/01/26 03:29:39;;;;;;;21.92;12.13;;;;;;;-2.68;85.33;99717.75;4992037;28;20154;-75
2021/01/26 03:32:11;;;;;;;24.73;12.38;;;;;;;-2.71;85.15;99718.88;4995461;28;20098;-75
2021/01/26 03:34:37;;;;;;;24.23;12.10;;;;;;;-2.62;84.39;99719.84;5010388;28;20056;-75
2021/01/26 03:37:05;;;;;;;23.23;11.55;;;;;;;-2.60;84.46;99716.06;4983128;28;20088;-76
2021/01/26 03:39:33;;;;;;;21.50;11.15;;;;;;;-2.54;83.76;99718.16;5010743;28;20055;-76
2021/01/26 03:42:00;;;;;;;18.33;11.10;;;;;;;-2.48;83.51;99711.41;5027784;28;20053;-75
2021/01/26 03:44:28;;;;;;;20.08;11.35;;;;;;;-2.42;83.28;99718.78;5027599;28;20081;-76
2021/01/26 03:47:05;;;;;;;18.58;10.23;;;;;;;-2.41;82.89;99715.97;4977872;28;20050;-76
2021/01/26 03:49:46;;;;;;;19.63;11.25;;;;;;;-2.41;82.89;99713.31;5010014;28;20053;-76
2021/01/26 03:52:30;;;;;;;19.15;10.32;;;;;;;-2.38;82.73;99706.84;5009986;28;20049;-76
2021/01/26 03:55:28;;;;;;;18.73;10.32;;;;;;;-2.41;82.85;99707.97;5008917;28;20085;-75
2021/01/26 03:58:23;;;;;;;17.20;10.38;;;;;;;-2.39;83.18;99705.16;4993902;28;20046;-76
2021/01/26 04:00:59;;;;;;;20.55;11.20;;;;;;;-2.42;83.00;99708.13;4974870;28;20050;-76
2021/01/26 04:03:47;;;;;;;22.70;12.20;;;;;;;-2.43;83.35;99718.00;4989526;28;20077;-76
2021/01/26 04:06:35;;;;;;;19.33;11.27;;;;;;;-2.44;83.15;99710.97;4971523;28;20106;-75
2021/01/26 04:09:06;;;;;;;22.07;11.73;;;;;;;-2.29;83.31;99713.16;4993890;28;20110;-76
2021/01/26 04:11:52;;;;;;;19.70;11.65;;;;;;;-2.27;82.63;99712.00;4993640;28;20053;-75
2021/01/26 04:14:26;;;;;;;17.48;10.65;;;;;;;-2.14;81.71;99712.53;5009557;28;20054;-75
2021/01/26 04:17:00;;;;;;;17.40;10.65;;;;;;;-2.13;81.61;99708.88;4993501;28;20053;-75
2021/01/26 04:19:30;;;;;;;24.08;11.65;;;;;;;-2.07;81.64;99713.59;5010222;28;20053;-75
2021/01/26 04:21:57;;;;;;;17.85;10.23;;;;;;;-2.05;81.28;99708.94;5009783;28;20049;-75
2021/01/26 04:24:30;;;;;;;18.58;10.70;;;;;;;-1.99;81.06;99709.34;5008954;28;20099;-76
2021/01/26 04:26:56;;;;;;;16.80;10.10;;;;;;;-1.98;81.02;99713.69;5012400;28;20053;-75
2021/01/26 04:29:24;;;;;;;17.15;10.63;;;;;;;-1.94;80.84;99707.09;5012079;28;20058;-75
2021/01/26 04:31:52;;;;;;;17.83;10.70;;;;;;;-1.89;80.43;99712.81;5010249;28;20041;-75
2021/01/26 04:34:19;;;;;;;18.70;11.05;;;;;;;-1.85;80.49;99706.19;4978397;28;20055;-75
2021/01/26 04:36:45;;;;;;;15.65;9.65;;;;;;;-1.83;80.48;99715.75;4986709;28;20050;-77
2021/01/26 04:39:12;;;;;;;14.73;9.48;;;;;;;-1.80;80.35;99710.09;5014152;28;20479;-75
2021/01/26 04:41:45;;;;;;;17.25;9.98;;;;;;;-1.77;80.33;99708.97;5009816;28;20073;-76
2021/01/26 04:44:28;;;;;;;21.63;9.85;;;;;;;-1.73;80.32;99710.31;5009028;28;20122;-75
2021/01/26 04:47:16;;;;;;;18.00;9.82;;;;;;;-1.71;80.48;99708.34;4961826;28;20137;-76
2021/01/26 04:50:03;;;;;;;15.88;8.85;;;;;;;-1.70;80.30;99710.88;4993282;28;20143;-76
2021/01/26 04:52:53;;;;;;;17.00;9.38;;;;;;;-1.66;80.08;99700.72;5009856;28;20034;-75
2021/01/26 04:55:27;;;;;;;16.98;8.77;;;;;;;-1.60;80.53;99700.13;4998351;28;20099;-76
2021/01/26 04:58:12;;;;;;;19.35;9.23;;;;;;;-1.64;80.32;99698.75;4995976;28;20507;-76
2021/01/26 05:01:03;;;;;;;21.40;10.32;;;;;;;-1.62;80.23;99702.09;4993317;28;20530;-76
2021/01/26 05:03:42;;;;;;;16.80;9.50;;;;;;;-1.58;80.24;99703.50;4977278;28;20077;-76
2021/01/26 05:06:12;;;;;;;17.40;9.80;;;;;;;-1.49;80.45;99697.25;5009234;28;20045;-75
2021/01/26 05:08:39;;;;;;;;;;;;;;;-1.51;80.14;99688.53;5013007;28;20052;-75
2021/01/26 05:11:10;;;;;;;14.45;9.23;;;;;;;-1.49;79.58;99693.72;5012463;28;20045;-75
2021/01/26 05:13:40;;;;;;;18.10;8.35;;;;;;;-1.50;80.06;99689.38;4989861;28;20612;-75
2021/01/26 05:16:12;;;;;;;16.35;9.13;;;;;;;-1.50;79.52;99684.03;4996338;28;20507;-76
2021/01/26 05:18:48;;;;;;;15.98;9.43;;;;;;;-1.49;80.08;99683.88;4980124;28;20087;-76
2021/01/26 05:21:42;;;;;;;14.63;8.93;;;;;;;-1.46;80.45;99686.25;4996105;28;20571;-75
2021/01/26 05:24:27;;;;;;;16.90;8.32;;;;;;;-1.37;80.26;99681.81;5028530;28;20467;-76
2021/01/26 05:26:54;;;;;;;16.58;8.75;;;;;;;-1.30;80.33;99688.22;4983371;28;20461;-76
2021/01/26 05:29:20;;;;;;;15.52;8.85;;;;;;;-1.27;80.10;99679.06;5012596;28;20046;-75
2021/01/26 05:31:55;;;;;;;15.70;8.63;;;;;;;-1.20;81.31;99680.97;4996043;28;20411;-75
2021/01/26 05:34:22;;;;;;;14.77;8.50;;;;;;;-1.19;81.01;99677.31;4996239;28;20129;-76
2021/01/26 05:36:48;;;;;;;16.55;9.32;;;;;;;-1.24;82.22;99679.59;5001993;28;20062;-76
2021/01/26 05:39:20;;;;;;;17.50;9.13;;;;;;;-0.92;80.38;99687.03;5042688;28;20071;-75
2021/01/26 05:41:46;;;;;;;12.77;8.00;;;;;;;-0.94;80.56;99670.31;4989454;28;20141;-75
2021/01/26 05:44:12;;;;;;;13.32;8.63;;;;;;;-1.02;80.81;99673.75;4995728;28;20061;-76
2021/01/26 05:46:42;;;;;;;15.02;8.65;;;;;;;-1.03;80.64;99671.22;4995897;28;20054;-77
2021/01/26 05:49:37;;;;;;;14.23;8.60;;;;;;;-1.06;80.74;99677.75;5013215;28;20041;-76
2021/01/26 05:52:08;;;;;;;14.63;8.77;;;;;;;-1.21;80.93;99679.28;5069843;28;20045;-76
2021/01/26 05:54:44;;;;;;;14.13;8.25;;;;;;;-1.22;81.44;99676.78;4996393;28;20546;-76
2021/01/26 05:57:11;;;;;;;12.70;8.07;;;;;;;-1.23;81.87;99675.09;5010618;28;20089;-76
2021/01/26 05:59:38;;;;;;;14.05;8.30;;;;;;;-1.24;82.20;99676.06;4985139;28;20068;-76
2021/01/26 06:02:15;;;;;;;12.93;8.57;;;;;;;-1.17;81.44;99669.97;4999913;28;20067;-76
2021/01/26 06:04:42;;;;;;;14.43;7.93;;;;;;;-1.17;81.67;99669.97;4995842;28;20567;-76
2021/01/26 06:07:23;;;;;;;19.80;8.45;;;;;;;-0.98;81.48;99674.28;5011716;28;20053;-76
2021/01/26 06:09:50;;;;;;;14.20;7.70;;;;;;;-1.07;81.24;99661.88;4979727;28;20585;-76
2021/01/26 06:12:21;;;;;;;12.52;8.00;;;;;;;-1.07;81.20;99667.22;5011723;28;20059;-76
2021/01/26 06:15:05;;;;;;;15.82;8.70;;;;;;;-1.03;81.62;99669.41;4995876;28;20073;-76
2021/01/26 06:17:34;;;;;;;16.20;9.48;;;;;;;-1.05;81.70;99665.22;5028930;28;20164;-76
2021/01/26 06:20:06;;;;;;;12.00;7.55;;;;;;;-1.04;81.49;99670.38;4995622;28;20041;-76
2021/01/26 06:22:33;;;;;;;15.55;9.15;;;;;;;-1.12;82.68;99669.50;5000337;28;20073;-76
2021/01/26 06:25:08;;;;;;;15.63;8.80;;;;;;;-1.12;83.21;99667.69;5012384;28;20128;-76
2021/01/26 06:28:08;;;;;;;13.20;8.35;;;;;;;-1.13;83.45;99665.16;5012140;28;20592;-76
2021/01/26 06:30:51;;;;;;;12.73;8.20;;;;;;;-1.14;83.38;99671.50;4995622;28;20049;-76
2021/01/26 06:33:44;;;;;;;15.27;8.93;;;;;;;-1.11;83.22;99673.88;4995749;28;20049;-76
2021/01/26 06:36:20;;;;;;;14.18;8.20;;;;;;;-1.10;83.41;99675.53;4989401;28;20050;-75
2021/01/26 06:39:00;;;;;;;14.55;8.52;;;;;;;-1.13;83.68;99675.84;4995375;28;20049;-76
2021/01/26 06:41:39;;;;;;;16.75;9.18;;;;;;;-1.11;83.12;99679.22;4994944;28;20061;-76
2021/01/26 06:44:29;;;;;;;14.23;8.75;;;;;;;-1.09;83.26;99679.91;5011359;28;20132;-76
2021/01/26 06:46:58;;;;;;;15.23;9.23;;;;;;;-1.06;83.76;99672.41;4996739;28;20082;-76
2021/01/26 06:49:34;;;;;;;15.73;10.10;;;;;;;-1.05;83.54;99674.09;5010907;28;20483;-76
2021/01/26 06:52:43;;;;;;;16.60;9.60;;;;;;;-1.05;84.35;99673.25;4994785;28;20056;-76
2021/01/26 06:55:22;;;;;;;17.25;9.73;;;;;;;-1.00;83.91;99678.94;4988477;28;20454;-76
2021/01/26 06:58:24;;;;;;;15.15;9.65;;;;;;;-0.99;84.32;99677.13;5009877;28;20052;-76
2021/01/26 07:01:02;;;;;;;21.45;10.20;;;;;;;-1.04;85.25;99675.75;4994772;28;20073;-76
2021/01/26 07:04:06;;;;;;;23.70;11.37;;;;;;;-1.02;85.92;99675.59;5010913;28;20059;-75
2021/01/26 07:06:51;;;;;;;19.25;11.45;;;;;;;-1.04;86.00;99674.94;5028485;28;20130;-76
2021/01/26 07:09:23;;;;;;;16.45;11.00;;;;;;;-0.86;85.79;99672.22;5006396;28;20081;-76
2021/01/26 07:11:59;;;;;;;19.55;11.88;;;;;;;-0.94;86.53;99675.66;4994846;28;20128;-76
2021/01/26 07:14:31;;;;;;;21.30;12.07;;;;;;;-0.97;86.39;99675.97;5011244;28;20059;-76
2021/01/26 07:17:04;;;;;;;21.95;11.77;;;;;;;-0.96;87.13;99676.81;5014763;28;20635;-76
2021/01/26 07:19:49;;;;;;;20.67;11.45;;;;;;;-0.99;86.88;99667.25;4988419;28;20106;-76
2021/01/26 07:22:41;;;;;;;19.77;11.77;;;;;;;-0.96;87.29;99666.94;4975127;28;20066;-75
2021/01/26 07:25:46;;;;;;;17.60;9.95;;;;;;;-0.86;86.53;99674.88;5016239;28;20054;-76
2021/01/26 07:28:21;;;;;;;19.95;11.00;;;;;;;-0.81;86.45;99673.41;4998887;28;20054;-76
2021/01/26 07:31:10;;;;;;;22.10;12.75;;;;;;;-0.81;86.61;99678.78;5073688;28;20150;-76
2021/01/26 07:33:46;;;;;;;21.25;12.27;;;;;;;-0.86;86.90;99673.03;4972820;28;20456;-75
2021/01/26 07:36:26;;;;;;;22.65;14.48;;;;;;;-0.86;87.46;99675.72;5021646;28;20052;-76
2021/01/26 07:39:08;;;;;;;24.13;14.23;;;;;;;-0.80;87.60;99676.94;4991863;28;20128;-76
2021/01/26 07:41:56;;;;;;;26.20;13.98;;;;;;;-0.78;87.21;99670.44;4997827;28;20396;-76
2021/01/26 07:44:48;;;;;;;21.88;13.02;;;;;;;-0.76;87.84;99672.97;5010787;28;20037;-76
2021/01/26 07:47:20;;;;;;;24.27;15.05;;;;;;;-0.73;88.05;99678.00;5027793;28;20097;-76
2021/01/26 07:50:11;;;;;;;26.52;14.38;;;;;;;-0.77;88.02;99669.44;5010450;28;20503;-75
2021/01/26 07:52:40;;;;;;;25.50;15.40;;;;;;;-0.75;88.72;99674.63;4993890;28;20049;-76
2021/01/26 07:55:32;;;;;;;28.35;16.48;;;;;;;-0.73;88.58;99668.13;5010178;28;20098;-76
2021/01/26 07:58:05;;;;;;;29.00;15.90;;;;;;;-0.70;88.78;99675.84;4994020;28;20056;-76
2021/01/26 08:00:36;;;;;;;29.00;15.68;;;;;;;-0.63;88.68;99669.84;5010520;28;20132;-75
2021/01/26 08:03:03;;;;;;;25.67;15.55;;;;;;;-0.60;89.01;99674.88;5010095;28;20418;-75
2021/01/26 08:05:45;;;;;;;27.85;17.23;;;;;;;-0.54;88.79;99674.25;5010151;28;20049;-76
2021/01/26 08:08:31;;;;;;;27.05;15.85;;;;;;;-0.49;88.83;99675.47;4977816;28;20503;-76
2021/01/26 08:11:03;;;;;;;28.33;16.30;;;;;;;-0.44;88.98;99683.00;4994575;28;20106;-76
2021/01/26 08:13:30;;;;;;;25.08;15.30;;;;;;;-0.45;88.47;99681.34;5010171;28;20053;-76
2021/01/26 08:16:09;;;;;;;28.42;16.80;;;;;;;-0.46;88.87;99680.50;4994087;28;20045;-76
2021/01/26 08:18:37;;;;;;;27.05;15.93;;;;;;;-0.40;88.89;99676.34;5010043;28;20061;-76
2021/01/26 08:21:26;;;;;;;28.50;17.33;;;;;;;-0.28;88.57;99677.72;5010102;28;20102;-76
2021/01/26 08:24:07;;;;;;;26.05;16.15;;;;;;;-0.17;88.76;99690.00;5019800;28;20068;-76
2021/01/26 08:26:33;;;;;;;32.40;17.30;;;;;;;-0.07;89.34;99688.06;5002781;28;20136;-73
2021/01/26 08:28:59;;;;;;;32.10;16.77;;;;;;;-0.22;88.84;99689.63;5010071;28;20086;-73
2021/01/26 08:31:28;;;;;;;30.15;16.00;;;;;;;-0.17;88.56;99690.00;4993603;28;20061;-76
2021/01/26 08:33:57;;;;;;;31.20;17.15;;;;;;;-0.13;88.18;99686.00;4993799;28;20530;-74
2021/01/26 08:36:29;;;;;;;28.55;16.70;;;;;;;0.12;88.13;99678.91;5002939;28;20103;-74
2021/01/26 08:38:57;;;;;;;27.00;16.42;;;;;;;0.08;87.48;99677.53;4995071;28;20460;-74
2021/01/26 08:41:47;;;;;;;27.70;16.48;;;;;;;-0.03;87.64;99681.38;5028877;28;20132;-74
2021/01/26 08:44:19;;;;;;;28.52;15.27;;;;;;;0.05;87.90;99677.88;5013251;28;20045;-74
2021/01/26 08:46:50;;;;;;;27.90;15.23;;;;;;;0.12;87.66;99670.88;5030089;28;20141;-74
2021/01/26 08:49:27;;;;;;;23.55;15.57;;;;;;;0.25;86.59;99669.41;4996645;28;20054;-74
2021/01/26 08:51:54;;;;;;;24.70;15.45;;;;;;;0.27;87.24;99674.59;5013022;28;20053;-74
2021/01/26 08:54:43;;;;;;;24.55;14.43;;;;;;;0.33;87.14;99680.16;4993956;28;20058;-74
2021/01/26 08:57:20;;;;;;;26.58;16.85;;;;;;;0.50;86.54;99680.16;5014219;28;20061;-74
2021/01/26 08:59:46;;;;;;;24.08;14.90;;;;;;;0.55;86.13;99689.41;5044361;28;20087;-74
2021/01/26 09:02:34;;;;;;;21.77;14.50;;;;;;;0.63;85.88;99692.09;5015093;28;20049;-74
2021/01/26 09:05:03;;;;;;;23.95;15.90;;;;;;;0.73;85.43;99693.75;4997169;28;20050;-74
2021/01/26 09:07:52;;;;;;;24.85;16.02;;;;;;;1.09;84.58;99696.97;5012694;28;20081;-75
2021/01/26 09:10:31;;;;;;;25.02;15.45;;;;;;;1.00;84.02;99707.72;4990423;28;20034;-74
2021/01/26 09:13:12;;;;;;;;;;;;;;;0.81;84.70;99702.66;5012582;28;20423;-74
2021/01/26 09:15:45;;;;;;;32.30;19.67;;;;;;;0.75;84.72;99705.16;5012735;28;20012;-75
2021/01/26 09:18:15;;;;;;;26.48;15.50;;;;;;;0.75;85.05;99705.16;4996272;28;20049;-74
2021/01/26 09:20:42;;;;;;;25.58;16.33;;;;;;;0.88;85.08;99719.78;5012565;28;20057;-74
2021/01/26 09:23:09;;;;;;;22.70;14.32;;;;;;;1.09;84.43;99711.22;5011801;28;20049;-74
2021/01/26 09:25:38;;;;;;;23.20;14.90;;;;;;;1.36;83.55;99722.66;4999298;28;20049;-75
2021/01/26 09:28:10;;;;;;;22.95;13.80;;;;;;;1.25;83.61;99727.34;5011728;28;20461;-75
2021/01/26 09:30:39;;;;;;;18.73;12.88;;;;;;;1.75;82.16;99726.25;5012494;28;20053;-74
2021/01/26 09:33:12;;;;;;;;;;;;;;;2.08;80.70;99720.81;5011980;28;20045;-75
2021/01/26 09:35:44;;;;;;;19.73;11.95;;;;;;;2.35;80.00;99731.94;5028881;28;19921;-75
2021/01/26 09:38:26;;;;;;;18.85;12.07;;;;;;;2.39;79.29;99737.81;4993062;28;20679;-75
2021/01/26 09:41:21;;;;;;;20.52;12.55;;;;;;;2.09;80.49;99738.56;5023387;28;20059;-74
2021/01/26 09:43:50;;;;;;;22.75;13.15;;;;;;;2.15;80.26;99746.78;5029729;28;20053;-74
2021/01/26 09:46:46;;;;;;;20.77;12.38;;;;;;;1.94;80.67;99743.84;5012466;28;20053;-75
2021/01/26 09:49:23;;;;;;;19.05;12.65;;;;;;;1.99;80.37;99752.22;5012296;28;20077;-74
2021/01/26 09:51:59;;;;;;;18.67;11.82;;;;;;;2.34;79.79;99750.94;4991450;28;20049;-74
2021/01/26 09:54:26;;;;;;;22.70;12.85;;;;;;;2.33;79.92;99755.47;4979390;28;20038;-75
2021/01/26 09:56:53;;;;;;;19.30;12.80;;;;;;;2.31;79.88;99762.03;4976219;28;20076;-74
2021/01/26 09:59:20;;;;;;;19.02;13.10;;;;;;;2.49;80.30;99754.53;4992905;28;20056;-74
2021/01/26 10:01:48;;;;;;;19.15;12.20;;;;;;;2.45;80.47;99761.28;5007111;28;20056;-75
2021/01/26 10:04:16;;;;;;;19.60;13.35;;;;;;;2.40;81.39;99755.59;5013260;28;20051;-75
2021/01/26 10:06:42;;;;;;;18.65;13.15;;;;;;;2.71;80.86;99768.22;5013009;28;20482;-74
2021/01/26 10:09:21;;;;;;;21.15;12.55;;;;;;;2.85;80.02;99754.00;5012095;28;20140;-75
2021/01/26 10:11:49;;;;;;;18.15;12.43;;;;;;;3.02;78.20;99758.28;4995664;28;20045;-75
2021/01/26 10:14:24;;;;;;;21.83;13.50;;;;;;;3.09;79.23;99761.94;5011738;28;20136;-74
2021/01/26 10:16:57;;;;;;;22.35;13.73;;;;;;;2.94;79.16;99753.78;4995588;28;20059;-75
2021/01/26 10:19:31;;;;;;;19.60;12.23;;;;;;;2.95;79.04;99757.31;5012054;28;20133;-74
2021/01/26 10:22:10;;;;;;;18.77;12.48;;;;;;;3.66;77.26;99766.84;5025906;28;20054;-74
2021/01/26 10:24:37;;;;;;;19.20;12.68;;;;;;;3.89;75.52;99773.00;5045925;28;20042;-75
2021/01/26 10:27:21;;;;;;;19.48;12.68;;;;;;;3.90;74.02;99765.75;5011862;28;20085;-74
2021/01/26 10:29:48;;;;;;;18.02;12.30;;;;;;;3.94;75.86;99770.59;5011419;28;20065;-75
2021/01/26 10:32:47;;;;;;;16.85;11.43;;;;;;;4.02;72.58;99770.53;5011457;28;20038;-74
2021/01/26 10:35:33;;;;;;;17.77;11.45;;;;;;;3.92;73.36;99780.72;5011506;28;20046;-74
2021/01/26 10:38:27;;;;;;;18.55;12.52;;;;;;;3.87;74.48;99784.97;4983841;28;20066;-74
2021/01/26 10:41:18;;;;;;;18.45;13.20;;;;;;;3.58;74.88;99785.75;4999019;28;20073;-74
2021/01/26 10:43:45;;;;;;;19.92;12.45;;;;;;;3.52;75.43;99784.63;5011596;28;20075;-74
2021/01/26 10:46:13;;;;;;;17.83;11.55;;;;;;;3.46;75.81;99784.53;5011409;28;20041;-74
2021/01/26 10:48:42;;;;;;;19.00;12.18;;;;;;;3.48;75.47;99795.94;5010855;28;20055;-74
2021/01/26 10:51:12;;;;;;;17.25;12.07;;;;;;;3.36;75.56;99799.09;5011797;28;20060;-74
2021/01/26 10:53:43;;;;;;;16.27;11.68;;;;;;;3.07;76.47;99803.50;5011194;28;20050;-74
2021/01/26 10:56:11;;;;;;;20.27;12.07;;;;;;;3.09;76.33;99813.06;4999195;28;20091;-74
2021/01/26 10:58:40;;;;;;;18.55;12.13;;;;;;;3.00;76.79;99822.22;4994839;28;20065;-74
2021/01/26 11:01:06;;;;;;;;;;;;;;;2.96;76.83;99826.25;4995413;28;20061;-74
2021/01/26 11:03:34;;;;;;;17.77;12.25;;;;;;;2.96;76.54;99831.66;5010608;28;19925;-74
2021/01/26 11:06:01;;;;;;;18.52;12.93;;;;;;;2.84;76.08;99835.75;5010903;28;20045;-74
2021/01/26 11:08:27;;;;;;;20.27;12.65;;;;;;;2.82;77.35;99835.06;5029251;28;20038;-74
2021/01/26 11:10:54;;;;;;;17.42;11.95;;;;;;;2.95;76.30;99827.28;5028409;28;20041;-74
2021/01/26 11:13:20;;;;;;;22.23;14.50;;;;;;;2.78;77.12;99831.06;5021148;28;20054;-74
2021/01/26 11:15:47;;;;;;;23.23;14.80;;;;;;;2.94;76.14;99828.28;5004640;28;20068;-74
2021/01/26 11:18:13;;;;;;;21.17;15.63;;;;;;;2.63;78.38;99837.19;5013390;28;20052;-74
2021/01/26 11:20:40;;;;;;;20.45;13.93;;;;;;;2.66;77.25;99836.84;5037525;28;20087;-74
2021/01/26 11:23:07;;;;;;;19.77;14.18;;;;;;;2.94;76.20;99844.44;5005988;28;20056;-73
2021/01/26 11:25:34;;;;;;;20.63;14.57;;;;;;;2.76;76.82;99847.41;4998316;28;20042;-74
2021/01/26 11:28:00;;;;;;;20.13;14.25;;;;;;;2.99;75.37;99853.66;5011162;28;20585;-74
2021/01/26 11:30:27;;;;;;;23.70;15.32;;;;;;;2.76;76.96;99846.56;5028412;28;20054;-74
2021/01/26 11:32:54;;;;;;;23.35;16.15;;;;;;;3.01;76.37;99854.34;4994546;28;20046;-74
2021/01/26 11:35:23;;;;;;;25.05;17.08;;;;;;;3.27;75.59;99851.31;4994262;28;20411;-74
2021/01/26 11:37:51;;;;;;;27.55;16.83;;;;;;;3.23;75.93;99855.38;4992875;28;20545;-74
2021/01/26 11:40:18;;;;;;;23.38;15.88;;;;;;;3.21;75.12;99856.56;5005725;28;20080;-74
2021/01/26 11:42:44;;;;;;;24.38;15.93;;;;;;;2.92;75.67;99858.06;4994208;28;20101;-74
2021/01/26 11:45:15;;;;;;;24.63;16.50;;;;;;;2.87;76.81;99855.06;5010263;28;20075;-74
2021/01/26 11:47:41;;;;;;;24.17;15.90;;;;;;;3.25;75.49;99852.50;5027909;28;20053;-74
2021/01/26 11:50:11;;;;;;;24.33;15.60;;;;;;;2.88;75.58;99854.06;5010813;28;20467;-74
2021/01/26 11:52:37;;;;;;;25.67;16.20;;;;;;;2.87;75.63;99865.00;5010214;28;20041;-74
2021/01/26 11:55:05;;;;;;;24.83;17.48;;;;;;;2.89;75.80;99863.81;5001580;28;20046;-74